Time,TemperatureF,DewpointF,PressureIn,WindDirection,WindDirectionDegrees,WindSpeedMPH,WindSpeedGustMPH,Humidity,HourlyPrecipIn,Conditions,Clouds,dailyrainin,SoftwareType,DateUTC
2013-01-06 00:00:00,36.8,27.2,29.82,NNW,344,3.5,3.5,68,0.00,,OVC,0.00,WeatherDisplay:10.37,2013-01-06 05:00:00,
2013-01-06 00:01:00,36.7,27.1,29.82,NNW,344,3.5,3.5,68,0.00,,OVC,0.00,WeatherDisplay:10.37,2013-01-06 05:01:00,
2013-01-06 00:06:00,36.7,27.1,29.82,NNW,340,4.6,4.6,68,0.00,,OVC,0.00,WeatherDisplay:10.37,2013-01-06 05:06:00,
2013-01-06 00:07:00,36.7,26.8,29.82,NNW,336,3.5,3.5,67,0.00,,OVC,0.00,WeatherDisplay:10.37,2013-01-06 05:07:00,
2013-01-06 00:12:00,36.7,26.8,29.82,North,349,4.6,4.6,67,0.00,,OVC,0.00,WeatherDisplay:10.37,2013-01-06 05:12:00,
2013-01-06 00:17:00,36.7,26.8,29.82,NW,326,4.6,4.6,67,0.00,,OVC,0.00,WeatherDisplay:10.37,2013-01-06 05:17:00,
2013-01-06 00:22:00,36.8,26.9,29.82,NNW,333,3.5,3.5,67,0.00,,OVC,0.00,WeatherDisplay:10.37,2013-01-06 05:22:00,
2013-01-06 00:27:00,36.8,27.2,29.82,NW,323,2.3,2.3,68,0.00,,OVC,0.00,WeatherDisplay:10.37,2013-01-06 05:27:00,
2013-01-06 00:32:00,36.7,27.1,29.82,NW,319,3.5,3.5,68,0.00,,OVC,0.00,WeatherDisplay:10.37,2013-01-06 05:32:00,
2013-01-06 00:37:00,36.7,27.5,29.82,NNW,340,2.3,2.3,69,0.00,,OVC,0.00,WeatherDisplay:10.37,2013-01-06 05:37:00,
2013-01-06 00:42:00,36.6,27.0,29.82,North,350,3.5,3.5,68,0.00,,OVC,0.00,WeatherDisplay:10.37,2013-01-06 05:42:00,
2013-01-06 00:47:00,36.7,27.5,29.82,North,350,1.1,1.1,69,0.00,,OVC,0.00,WeatherDisplay:10.37,2013-01-06 05:47:00,
2013-01-06 00:52:00,36.8,27.2,29.82,NW,323,2.3,2.3,68,0.00,,OVC,0.00,WeatherDisplay:10.37,2013-01-06 05:52:00,
2013-01-06 00:57:00,36.9,27.3,29.82,NNW,334,4.6,4.6,68,0.00,,OVC,0.00,WeatherDisplay:10.37,2013-01-06 05:57:00,
2013-01-06 01:02:00,37.0,27.4,29.82,NNW,336,2.3,2.3,68,0.00,,OVC,0.00,WeatherDisplay:10.37,2013-01-06 06:02:00,
2013-01-06 01:07:00,37.0,27.1,29.82,NNW,328,4.6,4.6,67,0.00,,OVC,0.00,WeatherDisplay:10.37,2013-01-06 06:07:00,
2013-01-06 01:12:00,37.1,27.2,29.82,NW,325,1.1,1.1,67,0.00,,OVC,0.00,WeatherDisplay:10.37,2013-01-06 06:12:00,
2013-01-06 01:17:00,37.2,26.9,29.82,NNW,340,3.5,3.5,66,0.00,,OVC,0.00,WeatherDisplay:10.37,2013-01-06 06:17:00,
2013-01-06 01:22:00,37.3,27.0,29.82,NW,321,2.3,2.3,66,0.00,,OVC,0.00,WeatherDisplay:10.37,2013-01-06 06:22:00,
2013-01-06 01:27:00,37.3,27.0,29.82,NW,315,1.1,1.1,66,0.00,,OVC,0.00,WeatherDisplay:10.37,2013-01-06 06:27:00,
2013-01-06 01:32:00,37.3,27.0,29.82,NW,311,1.1,0.0,66,0.00,,OVC,0.00,WeatherDisplay:10.37,2013-01-06 06:32:00,
2013-01-06 01:37:00,37.2,26.9,29.82,NW,311,1.1,1.1,66,0.00,,OVC,0.00,WeatherDisplay:10.37,2013-01-06 06:37:00,
2013-01-06 01:42:00,37.2,27.2,29.82,NW,312,1.1,1.1,67,0.00,,OVC,0.00,WeatherDisplay:10.37,2013-01-06 06:42:00,
2013-01-06 01:47:00,37.1,27.5,29.82,NW,312,0.0,0.0,68,0.00,,OVC,0.00,WeatherDisplay:10.37,2013-01-06 06:47:00,
2013-01-06 01:52:00,37.1,27.9,29.82,NW,312,0.0,0.1,69,0.00,,OVC,0.00,WeatherDisplay:10.37,2013-01-06 06:52:00,
2013-01-06 01:57:00,36.9,27.7,29.82,NW,312,2.3,2.3,69,0.00,,OVC,0.00,WeatherDisplay:10.37,2013-01-06 06:57:00,
2013-01-06 02:02:00,36.7,27.5,29.82,NW,312,2.3,2.3,69,0.00,,OVC,0.00,WeatherDisplay:10.37,2013-01-06 07:02:00,
2013-01-06 02:07:00,36.6,27.7,29.82,NW,312,2.3,2.3,70,0.00,,OVC,0.00,WeatherDisplay:10.37,2013-01-06 07:07:00,
2013-01-06 02:12:00,36.5,28.0,29.82,NW,312,2.3,2.3,71,0.00,,OVC,0.00,WeatherDisplay:10.37,2013-01-06 07:12:00,
2013-01-06 02:17:00,36.4,28.2,29.82,NW,317,2.3,2.3,72,0.00,,OVC,0.00,WeatherDisplay:10.37,2013-01-06 07:17:00,
2013-01-06 02:22:00,36.2,28.0,29.82,NNW,331,2.3,2.3,72,0.00,,OVC,0.00,WeatherDisplay:10.37,2013-01-06 07:22:00,
2013-01-06 02:27:00,36.1,28.3,29.82,NNW,331,0.0,0.0,73,0.00,,OVC,0.00,WeatherDisplay:10.37,2013-01-06 07:27:00,
2013-01-06 02:32:00,36.1,28.3,29.82,NNW,331,1.1,0.0,73,0.00,,OVC,0.00,WeatherDisplay:10.37,2013-01-06 07:32:00,
2013-01-06 02:37:00,36.0,28.2,29.82,NNW,331,1.1,1.1,73,0.00,,OVC,0.00,WeatherDisplay:10.37,2013-01-06 07:37:00,
2013-01-06 02:42:00,36.0,28.2,29.82,NNW,331,0.0,0.0,73,0.00,,OVC,0.00,WeatherDisplay:10.37,2013-01-06 07:42:00,
2013-01-06 02:47:00,35.9,28.4,29.82,NNW,331,1.1,0.0,74,0.00,,OVC,0.00,WeatherDisplay:10.37,2013-01-06 07:47:00,
2013-01-06 02:52:00,35.9,28.4,29.82,NNW,331,1.1,0.0,74,0.00,,OVC,0.00,WeatherDisplay:10.37,2013-01-06 07:52:00,
2013-01-06 02:57:00,35.8,28.3,29.82,NNW,331,0.0,0.0,74,0.00,,OVC,0.00,WeatherDisplay:10.37,2013-01-06 07:57:00,
2013-01-06 03:02:00,35.7,28.6,29.82,NNW,331,0.0,0.0,75,0.00,,OVC,0.00,WeatherDisplay:10.37,2013-01-06 08:02:00,
2013-01-06 03:07:00,35.6,28.5,29.82,NNW,331,1.1,1.1,75,0.00,,OVC,0.00,WeatherDisplay:10.37,2013-01-06 08:07:00,
2013-01-06 03:12:00,35.4,28.6,29.82,NNW,331,0.0,0.0,76,0.00,,OVC,0.00,WeatherDisplay:10.37,2013-01-06 08:12:00,
2013-01-06 03:17:00,35.2,28.4,29.82,NNW,331,0.0,0.0,76,0.00,,OVC,0.00,WeatherDisplay:10.37,2013-01-06 08:17:00,
2013-01-06 03:22:00,35.1,28.6,29.82,NNW,331,0.0,0.0,77,0.00,,OVC,0.00,WeatherDisplay:10.37,2013-01-06 08:22:00,
2013-01-06 03:27:00,34.9,28.4,29.82,NNW,331,0.0,0.0,77,0.00,,OVC,0.00,WeatherDisplay:10.37,2013-01-06 08:27:00,
2013-01-06 03:33:00,34.8,28.6,29.82,NNW,331,3.5,3.5,78,0.00,,OVC,0.00,WeatherDisplay:10.37,2013-01-06 08:33:00,
2013-01-06 03:37:00,34.8,28.6,29.82,NNW,331,2.3,2.3,78,0.00,,OVC,0.00,WeatherDisplay:10.37,2013-01-06 08:37:00,
2013-01-06 03:43:00,34.7,28.9,29.82,NNW,331,1.1,1.1,79,0.00,,OVC,0.00,WeatherDisplay:10.37,2013-01-06 08:43:00,
2013-01-06 03:48:00,34.7,28.9,29.82,NNW,331,0.0,0.0,79,0.00,,OVC,0.00,WeatherDisplay:10.37,2013-01-06 08:48:00,
2013-01-06 03:53:00,34.5,28.7,29.82,NNW,331,1.1,1.1,79,0.00,,OVC,0.00,WeatherDisplay:10.37,2013-01-06 08:53:00,
2013-01-06 03:58:00,34.4,28.9,29.82,NNW,338,1.1,0.0,80,0.00,,OVC,0.00,WeatherDisplay:10.37,2013-01-06 08:58:00,
2013-01-06 04:03:00,34.4,28.9,29.82,NW,324,0.0,0.0,80,0.00,,OVC,0.00,WeatherDisplay:10.37,2013-01-06 09:03:00,
2013-01-06 04:08:00,34.4,28.9,29.82,NW,324,2.3,2.3,80,0.00,,OVC,0.00,WeatherDisplay:10.37,2013-01-06 09:08:00,
2013-01-06 04:13:00,34.4,29.2,29.82,NW,324,1.1,1.1,81,0.00,,OVC,0.00,WeatherDisplay:10.37,2013-01-06 09:13:00,
2013-01-06 04:18:00,34.4,29.2,29.82,NW,325,1.1,1.1,81,0.00,,OVC,0.00,WeatherDisplay:10.37,2013-01-06 09:18:00,
2013-01-06 04:23:00,34.4,29.2,29.82,NW,324,1.1,1.1,81,0.00,,OVC,0.00,WeatherDisplay:10.37,2013-01-06 09:23:00,
2013-01-06 04:28:00,34.4,29.5,29.82,NW,324,2.3,2.3,82,0.00,,OVC,0.00,WeatherDisplay:10.37,2013-01-06 09:28:00,
2013-01-06 04:33:00,34.4,29.5,29.82,NNW,335,1.1,0.0,82,0.00,,OVC,0.00,WeatherDisplay:10.37,2013-01-06 09:33:00,
2013-01-06 04:38:00,34.4,29.5,29.82,NNW,331,2.3,2.3,82,0.00,,OVC,0.00,WeatherDisplay:10.37,2013-01-06 09:38:00,
2013-01-06 04:43:00,34.2,29.3,29.82,NNW,333,4.0,4.0,82,0.00,,OVC,0.00,WeatherDisplay:10.37,2013-01-06 09:43:00,
2013-01-06 04:48:00,34.1,29.2,29.82,NNW,343,0.0,0.0,82,0.00,,OVC,0.00,WeatherDisplay:10.37,2013-01-06 09:48:00,
2013-01-06 04:53:00,34.0,29.4,29.82,NNW,344,3.5,3.5,83,0.00,,OVC,0.00,WeatherDisplay:10.37,2013-01-06 09:53:00,
2013-01-06 04:58:00,34.0,29.4,29.82,NNW,337,2.3,2.3,83,0.00,,OVC,0.00,WeatherDisplay:10.37,2013-01-06 09:58:00,
2013-01-06 05:03:00,33.9,29.3,29.82,NNW,337,0.0,0.0,83,0.00,,OVC,0.00,WeatherDisplay:10.37,2013-01-06 10:03:00,
2013-01-06 05:08:00,33.9,29.6,29.82,NNW,338,1.1,1.1,84,0.00,,OVC,0.00,WeatherDisplay:10.37,2013-01-06 10:08:00,
2013-01-06 05:13:00,34.0,29.7,29.82,NNW,338,1.1,1.1,84,0.00,,OVC,0.00,WeatherDisplay:10.37,2013-01-06 10:13:00,
2013-01-06 05:18:00,34.2,30.2,29.82,NW,321,3.5,3.5,85,0.00,,OVC,0.00,WeatherDisplay:10.37,2013-01-06 10:18:00,
2013-01-06 05:23:00,34.5,30.7,29.82,NNW,339,5.0,5.0,86,0.00,,OVC,0.00,WeatherDisplay:10.37,2013-01-06 10:23:00,
2013-01-06 05:28:00,35.2,31.7,29.82,North,350,5.8,5.8,87,0.00,,OVC,0.00,WeatherDisplay:10.37,2013-01-06 10:28:00,
2013-01-06 05:33:00,35.5,31.7,29.82,NNW,344,12.0,12.0,86,0.00,,OVC,0.00,WeatherDisplay:10.37,2013-01-06 10:33:00,
2013-01-06 05:38:00,36.0,32.2,29.82,North,360,11.5,11.5,86,0.00,,OVC,0.00,WeatherDisplay:10.37,2013-01-06 10:38:00,
2013-01-06 05:43:00,36.2,32.4,29.82,NNE,14,5.8,5.8,86,0.00,,OVC,0.00,WeatherDisplay:10.37,2013-01-06 10:43:00,
2013-01-06 05:48:00,36.4,32.6,29.82,NW,325,3.0,3.0,86,0.00,,OVC,0.00,WeatherDisplay:10.37,2013-01-06 10:48:00,
2013-01-06 05:53:00,36.5,32.4,29.82,NNW,340,4.6,4.6,85,0.00,,OVC,0.00,WeatherDisplay:10.37,2013-01-06 10:53:00,
2013-01-06 05:58:00,36.5,32.4,29.82,NW,321,5.0,5.0,85,0.00,,OVC,0.00,WeatherDisplay:10.37,2013-01-06 10:58:00,
2013-01-06 06:03:00,36.6,32.5,29.82,North,360,4.6,4.6,85,0.00,,OVC,0.00,WeatherDisplay:10.37,2013-01-06 11:03:00,
2013-01-06 06:08:00,36.6,32.5,29.82,NNW,341,3.5,3.5,85,0.00,,OVC,0.00,WeatherDisplay:10.37,2013-01-06 11:08:00,
2013-01-06 06:13:00,36.6,32.5,29.82,North,9,6.0,6.0,85,0.00,,OVC,0.00,WeatherDisplay:10.37,2013-01-06 11:13:00,
2013-01-06 06:18:00,36.7,32.6,29.82,NW,317,3.5,3.5,85,0.00,,OVC,0.00,WeatherDisplay:10.37,2013-01-06 11:18:00,
2013-01-06 06:23:00,36.7,32.6,29.82,NNW,340,6.9,6.9,85,0.00,,OVC,0.00,WeatherDisplay:10.37,2013-01-06 11:23:00,
2013-01-06 06:28:00,36.8,32.4,29.82,NNW,332,5.8,5.8,84,0.00,,OVC,0.00,WeatherDisplay:10.37,2013-01-06 11:28:00,
2013-01-06 06:33:00,36.8,32.4,29.82,NNW,333,3.5,3.5,84,0.00,,OVC,0.00,WeatherDisplay:10.37,2013-01-06 11:33:00,
2013-01-06 06:38:00,36.9,32.5,29.82,North,355,9.2,9.2,84,0.00,,OVC,0.00,WeatherDisplay:10.37,2013-01-06 11:38:00,
2013-01-06 06:43:00,36.9,32.5,29.82,NW,323,6.9,6.9,84,0.00,,OVC,0.00,WeatherDisplay:10.37,2013-01-06 11:43:00,
2013-01-06 06:48:00,36.9,32.5,29.82,NNW,348,9.2,9.2,84,0.00,,OVC,0.00,WeatherDisplay:10.37,2013-01-06 11:48:00,
2013-01-06 06:53:00,37.0,32.6,29.82,North,355,3.5,3.5,84,0.00,,OVC,0.00,WeatherDisplay:10.37,2013-01-06 11:53:00,
2013-01-06 06:58:00,37.0,32.6,29.82,NNW,330,3.5,3.5,84,0.00,,OVC,0.00,WeatherDisplay:10.37,2013-01-06 11:58:00,
2013-01-06 07:03:00,37.0,32.6,29.82,NNW,339,3.5,0.0,84,0.00,,OVC,0.00,WeatherDisplay:10.37,2013-01-06 12:03:00,
2013-01-06 07:08:00,37.0,32.6,29.82,NNW,347,2.0,2.0,84,0.00,,OVC,0.00,WeatherDisplay:10.37,2013-01-06 12:08:00,
2013-01-06 07:13:00,37.0,32.6,29.82,NNW,340,3.0,3.0,84,0.00,,OVC,0.00,WeatherDisplay:10.37,2013-01-06 12:13:00,
2013-01-06 07:18:00,37.0,32.3,29.82,NNW,328,4.0,4.0,83,0.00,,OVC,0.00,WeatherDisplay:10.37,2013-01-06 12:18:00,
2013-01-06 07:23:00,37.0,32.3,29.82,NNW,338,9.2,9.2,83,0.00,,OVC,0.00,WeatherDisplay:10.37,2013-01-06 12:23:00,
2013-01-06 07:28:00,37.0,32.3,29.82,North,360,3.5,3.5,83,0.00,,OVC,0.00,WeatherDisplay:10.37,2013-01-06 12:28:00,
2013-01-06 07:33:00,37.0,32.3,29.82,WNW,288,2.3,2.3,83,0.00,,OVC,0.00,WeatherDisplay:10.37,2013-01-06 12:33:00,
2013-01-06 07:38:00,36.9,32.5,29.82,North,360,2.3,2.3,84,0.00,,OVC,0.00,WeatherDisplay:10.37,2013-01-06 12:38:00,
2013-01-06 07:43:00,36.9,32.5,29.82,NNW,339,1.1,0.0,84,0.00,,OVC,0.00,WeatherDisplay:10.37,2013-01-06 12:43:00,
2013-01-06 07:48:00,36.8,32.4,29.82,NNW,327,5.8,5.8,84,0.00,,OVC,0.00,WeatherDisplay:10.37,2013-01-06 12:48:00,
2013-01-06 07:53:00,36.8,32.4,29.82,North,350,6.9,6.9,84,0.00,,OVC,0.00,WeatherDisplay:10.37,2013-01-06 12:53:00,
2013-01-06 07:58:00,36.7,32.3,29.82,North,355,6.9,6.9,84,0.00,,OVC,0.00,WeatherDisplay:10.37,2013-01-06 12:58:00,
2013-01-06 08:03:00,36.6,32.2,29.82,NNW,348,3.5,3.5,84,0.00,,OVC,0.00,WeatherDisplay:10.37,2013-01-06 13:03:00,
2013-01-06 08:08:00,36.5,32.1,29.82,NNW,340,5.8,5.8,84,0.00,,OVC,0.00,WeatherDisplay:10.37,2013-01-06 13:08:00,
2013-01-06 08:13:00,36.3,31.9,29.82,NNW,336,0.0,0.0,84,0.00,,OVC,0.00,WeatherDisplay:10.37,2013-01-06 13:13:00,
2013-01-06 08:18:00,36.2,32.1,29.82,North,355,3.5,3.5,85,0.00,,OVC,0.00,WeatherDisplay:10.37,2013-01-06 13:18:00,
2013-01-06 08:23:00,36.1,32.0,29.82,NNW,344,2.3,2.3,85,0.00,,OVC,0.00,WeatherDisplay:10.37,2013-01-06 13:23:00,
2013-01-06 08:28:00,36.1,32.0,29.82,NNW,335,2.3,2.3,85,0.00,,OVC,0.00,WeatherDisplay:10.37,2013-01-06 13:28:00,
2013-01-06 08:33:00,36.1,32.0,29.82,NNE,32,3.5,3.5,85,0.00,,OVC,0.00,WeatherDisplay:10.37,2013-01-06 13:33:00,
2013-01-06 08:38:00,36.2,32.1,29.82,North,350,5.0,5.0,85,0.00,,OVC,0.00,WeatherDisplay:10.37,2013-01-06 13:38:00,
2013-01-06 08:43:00,36.2,32.1,29.82,NNW,341,2.3,2.3,85,0.00,,OVC,0.00,WeatherDisplay:10.37,2013-01-06 13:43:00,
2013-01-06 08:48:00,36.3,32.2,29.82,NNW,342,2.3,2.3,85,0.00,,OVC,0.00,WeatherDisplay:10.37,2013-01-06 13:48:00,
2013-01-06 08:53:00,36.4,32.3,29.82,NNE,17,3.5,3.5,85,0.00,,OVC,0.00,WeatherDisplay:10.37,2013-01-06 13:53:00,
2013-01-06 08:58:00,36.4,32.3,29.82,North,355,1.1,1.1,85,0.00,,OVC,0.00,WeatherDisplay:10.37,2013-01-06 13:58:00,
2013-01-06 09:03:00,36.5,32.4,29.82,North,355,0.0,0.0,85,0.00,,OVC,0.00,WeatherDisplay:10.37,2013-01-06 14:03:00,
2013-01-06 09:08:00,36.6,32.5,29.82,NNW,343,1.1,0.0,85,0.00,,OVC,0.00,WeatherDisplay:10.37,2013-01-06 14:08:00,
2013-01-06 09:13:00,36.8,32.4,29.82,North,360,2.3,2.3,84,0.00,,OVC,0.00,WeatherDisplay:10.37,2013-01-06 14:13:00,
2013-01-06 09:19:00,37.0,32.6,29.82,North,350,3.5,3.5,84,0.00,,OVC,0.00,WeatherDisplay:10.37,2013-01-06 14:19:00,
2013-01-06 09:24:00,37.1,32.7,29.82,North,355,1.1,0.0,84,0.00,,OVC,0.00,WeatherDisplay:10.37,2013-01-06 14:24:00,
2013-01-06 09:29:00,37.2,32.5,29.82,NE,54,2.3,2.3,83,0.00,,OVC,0.00,WeatherDisplay:10.37,2013-01-06 14:29:00,
2013-01-06 09:34:00,37.3,32.6,29.82,NNE,16,2.3,2.3,83,0.00,,OVC,0.00,WeatherDisplay:10.37,2013-01-06 14:34:00,
2013-01-06 09:39:00,37.3,32.6,29.82,NNE,17,1.1,1.1,83,0.00,,OVC,0.00,WeatherDisplay:10.37,2013-01-06 14:39:00,
2013-01-06 09:44:00,37.4,32.7,29.82,NNE,17,0.0,0.0,83,0.00,,OVC,0.00,WeatherDisplay:10.37,2013-01-06 14:44:00,
2013-01-06 09:49:00,37.5,32.8,29.82,NW,306,3.5,3.5,83,0.00,,OVC,0.00,WeatherDisplay:10.37,2013-01-06 14:49:00,
2013-01-06 09:54:00,37.7,33.0,29.82,NW,306,1.1,0.0,83,0.00,,OVC,0.00,WeatherDisplay:10.37,2013-01-06 14:54:00,
2013-01-06 09:59:00,38.2,33.2,29.82,NNW,345,2.3,2.3,82,0.00,,OVC,0.00,WeatherDisplay:10.37,2013-01-06 14:59:00,
2013-01-06 10:04:00,38.6,33.3,29.82,NNW,345,1.1,0.0,81,0.00,,OVC,0.00,WeatherDisplay:10.37,2013-01-06 15:04:00,
2013-01-06 10:09:00,39.2,33.9,29.82,NNW,338,1.1,1.1,81,0.00,,OVC,0.00,WeatherDisplay:10.37,2013-01-06 15:09:00,
2013-01-06 10:14:00,39.7,34.0,29.82,NNW,330,1.1,1.1,80,0.00,,OVC,0.00,WeatherDisplay:10.37,2013-01-06 15:14:00,
2013-01-06 10:19:00,40.1,33.8,29.82,NW,323,4.6,4.6,78,0.00,,OVC,0.00,WeatherDisplay:10.37,2013-01-06 15:19:00,
2013-01-06 10:24:00,40.4,34.1,29.82,NNW,331,2.3,2.3,78,0.00,,OVC,0.00,WeatherDisplay:10.37,2013-01-06 15:24:00,
2013-01-06 10:29:00,40.8,34.5,29.82,WNW,296,2.3,2.3,78,0.00,,OVC,0.00,WeatherDisplay:10.37,2013-01-06 15:29:00,
2013-01-06 10:34:00,41.1,34.4,29.82,NW,315,4.6,4.6,77,0.00,,OVC,0.00,WeatherDisplay:10.37,2013-01-06 15:34:00,
2013-01-06 10:39:00,41.1,34.4,29.82,North,360,4.6,4.6,77,0.00,,OVC,0.00,WeatherDisplay:10.37,2013-01-06 15:39:00,
2013-01-06 10:44:00,41.3,34.6,29.82,NNW,333,3.0,3.0,77,0.00,,OVC,0.00,WeatherDisplay:10.37,2013-01-06 15:44:00,
2013-01-06 10:49:00,41.3,34.3,29.82,North,355,5.8,5.8,76,0.00,,OVC,0.00,WeatherDisplay:10.37,2013-01-06 15:49:00,
2013-01-06 10:54:00,41.2,34.5,29.82,NNW,336,8.0,8.0,77,0.00,,OVC,0.00,WeatherDisplay:10.37,2013-01-06 15:54:00,
2013-01-06 10:59:00,41.1,34.4,29.82,NNW,333,3.5,3.5,77,0.00,,OVC,0.00,WeatherDisplay:10.37,2013-01-06 15:59:00,
2013-01-06 11:04:00,41.4,34.7,29.82,NW,305,6.0,6.0,77,0.00,,OVC,0.00,WeatherDisplay:10.37,2013-01-06 16:04:00,
2013-01-06 11:09:00,41.3,34.6,29.82,NW,317,4.6,4.6,77,0.00,,OVC,0.00,WeatherDisplay:10.37,2013-01-06 16:09:00,
2013-01-06 11:14:00,41.4,34.7,29.82,NW,304,4.6,4.6,77,0.00,,OVC,0.00,WeatherDisplay:10.37,2013-01-06 16:14:00,
2013-01-06 11:19:00,41.8,35.1,29.82,NW,307,3.5,3.5,77,0.00,,OVC,0.00,WeatherDisplay:10.37,2013-01-06 16:19:00,
2013-01-06 11:24:00,42.0,35.0,29.82,NW,309,5.0,5.0,76,0.00,,OVC,0.00,WeatherDisplay:10.37,2013-01-06 16:24:00,
2013-01-06 11:29:00,41.2,34.2,29.82,NW,315,4.6,4.6,76,0.00,,OVC,0.00,WeatherDisplay:10.37,2013-01-06 16:29:00,
2013-01-06 11:34:00,40.6,34.3,29.82,WNW,303,8.1,8.1,78,0.00,,OVC,0.00,WeatherDisplay:10.37,2013-01-06 16:34:00,
2013-01-06 11:39:00,40.2,33.9,29.82,NW,322,6.0,6.0,78,0.00,,OVC,0.00,WeatherDisplay:10.37,2013-01-06 16:39:00,
2013-01-06 11:44:00,39.9,33.9,29.82,NNW,348,3.5,3.5,79,0.00,,OVC,0.00,WeatherDisplay:10.37,2013-01-06 16:44:00,
2013-01-06 11:49:00,40.3,34.0,29.82,NW,309,9.2,9.2,78,0.00,,OVC,0.00,WeatherDisplay:10.37,2013-01-06 16:49:00,
2013-01-06 11:54:00,40.5,33.9,29.82,WNW,294,8.1,8.1,77,0.00,,OVC,0.00,WeatherDisplay:10.37,2013-01-06 16:54:00,
2013-01-06 11:59:00,40.8,34.1,29.82,NNW,333,9.2,9.2,77,0.00,,OVC,0.00,WeatherDisplay:10.37,2013-01-06 16:59:00,
2013-01-06 12:04:00,41.0,34.3,29.82,NW,312,3.5,3.5,77,0.00,,OVC,0.00,WeatherDisplay:10.37,2013-01-06 17:04:00,
2013-01-06 12:09:00,41.1,33.8,29.82,NNW,344,10.4,10.4,75,0.00,,OVC,0.00,WeatherDisplay:10.37,2013-01-06 17:09:00,
2013-01-06 12:14:00,41.3,34.3,29.82,NW,324,4.6,4.6,76,0.00,,OVC,0.00,WeatherDisplay:10.37,2013-01-06 17:14:00,
2013-01-06 12:19:00,41.9,34.9,29.82,NW,316,4.6,4.6,76,0.00,,OVC,0.00,WeatherDisplay:10.37,2013-01-06 17:19:00,
2013-01-06 12:24:00,42.5,34.8,29.82,NW,309,4.6,4.6,74,0.00,,OVC,0.00,WeatherDisplay:10.37,2013-01-06 17:24:00,
2013-01-06 12:29:00,42.9,34.8,29.82,NW,323,4.0,4.0,73,0.00,,OVC,0.00,WeatherDisplay:10.37,2013-01-06 17:29:00,
2013-01-06 12:34:00,42.8,34.7,29.82,NW,314,5.0,5.0,73,0.00,,OVC,0.00,WeatherDisplay:10.37,2013-01-06 17:34:00,
2013-01-06 12:39:00,42.5,34.5,29.82,NW,306,5.8,5.8,73,0.00,,OVC,0.00,WeatherDisplay:10.37,2013-01-06 17:39:00,
2013-01-06 12:44:00,42.4,34.4,29.82,NNW,327,6.9,6.9,73,0.00,,OVC,0.00,WeatherDisplay:10.37,2013-01-06 17:44:00,
2013-01-06 12:49:00,42.5,34.5,29.82,NNW,343,4.6,5.0,73,0.00,,OVC,0.00,WeatherDisplay:10.37,2013-01-06 17:49:00,
2013-01-06 12:54:00,42.4,34.7,29.82,NW,321,4.6,4.6,74,0.00,,OVC,0.00,WeatherDisplay:10.37,2013-01-06 17:54:00,
2013-01-06 12:59:00,42.5,34.1,29.82,NW,312,6.9,6.9,72,0.00,,OVC,0.00,WeatherDisplay:10.37,2013-01-06 17:59:00,
2013-01-06 13:04:00,42.5,34.5,29.82,NW,323,4.6,4.6,73,0.00,,OVC,0.00,WeatherDisplay:10.37,2013-01-06 18:04:00,
2013-01-06 13:09:00,42.8,34.4,29.82,West,265,5.0,5.0,72,0.00,,OVC,0.00,WeatherDisplay:10.37,2013-01-06 18:09:00,
2013-01-06 13:14:00,42.9,34.5,29.82,WNW,291,6.9,6.9,72,0.00,,OVC,0.00,WeatherDisplay:10.37,2013-01-06 18:14:00,
2013-01-06 13:19:00,43.1,34.7,29.82,WNW,300,5.8,5.8,72,0.00,,OVC,0.00,WeatherDisplay:10.37,2013-01-06 18:19:00,
2013-01-06 13:24:00,43.4,34.6,29.82,NNW,340,5.0,5.0,71,0.00,,OVC,0.00,WeatherDisplay:10.37,2013-01-06 18:24:00,
2013-01-06 13:29:00,43.7,34.6,29.82,NW,306,4.6,4.6,70,0.00,,OVC,0.00,WeatherDisplay:10.37,2013-01-06 18:29:00,
2013-01-06 13:34:00,43.7,34.2,29.82,NW,309,5.8,5.8,69,0.00,,OVC,0.00,WeatherDisplay:10.37,2013-01-06 18:34:00,
2013-01-06 13:39:00,43.7,34.6,29.82,WNW,296,4.0,4.0,70,0.00,,OVC,0.00,WeatherDisplay:10.37,2013-01-06 18:39:00,
2013-01-06 13:44:00,43.9,34.7,29.82,NNW,342,3.5,3.6,70,0.00,,OVC,0.00,WeatherDisplay:10.37,2013-01-06 18:44:00,
2013-01-06 13:49:00,43.7,34.6,29.82,NW,324,5.8,5.8,70,0.00,,OVC,0.00,WeatherDisplay:10.37,2013-01-06 18:49:00,
2013-01-06 13:54:00,43.9,34.7,29.82,WNW,302,4.6,4.6,70,0.00,,OVC,0.00,WeatherDisplay:10.37,2013-01-06 18:54:00,
2013-01-06 13:59:00,43.8,34.6,29.82,NNW,339,8.1,8.1,70,0.00,,OVC,0.00,WeatherDisplay:10.37,2013-01-06 18:59:00,
2013-01-06 14:04:00,44.0,34.8,29.82,NW,325,4.6,4.6,70,0.00,,OVC,0.00,WeatherDisplay:10.37,2013-01-06 19:04:00,
2013-01-06 14:09:00,44.5,35.0,29.82,NW,326,3.5,3.5,69,0.00,,OVC,0.00,WeatherDisplay:10.37,2013-01-06 19:09:00,
2013-01-06 14:14:00,44.8,34.9,29.82,NW,320,5.8,5.8,68,0.00,,OVC,0.00,WeatherDisplay:10.37,2013-01-06 19:14:00,
2013-01-06 14:19:00,44.5,34.6,29.82,North,360,9.0,9.0,68,0.00,,OVC,0.00,WeatherDisplay:10.37,2013-01-06 19:19:00,
2013-01-06 14:24:00,43.8,34.3,29.82,NNW,331,6.9,6.9,69,0.00,,OVC,0.00,WeatherDisplay:10.37,2013-01-06 19:24:00,
2013-01-06 14:29:00,43.9,34.7,29.82,NNW,337,4.6,4.6,70,0.00,,OVC,0.00,WeatherDisplay:10.37,2013-01-06 19:29:00,
2013-01-06 14:34:00,43.6,34.5,29.82,WNW,298,5.0,5.0,70,0.00,,OVC,0.00,WeatherDisplay:10.37,2013-01-06 19:34:00,
2013-01-06 14:39:00,43.4,34.3,29.82,NW,316,5.8,5.8,70,0.00,,OVC,0.00,WeatherDisplay:10.37,2013-01-06 19:39:00,
2013-01-06 14:46:00,42.9,34.1,29.82,NNE,15,9.2,9.2,71,0.00,,OVC,0.00,WeatherDisplay:10.37,2013-01-06 19:46:00,
2013-01-06 14:51:00,42.8,34.0,29.82,NNW,333,9.2,9.2,71,0.00,,OVC,0.00,WeatherDisplay:10.37,2013-01-06 19:51:00,
2013-01-06 14:57:00,42.5,34.1,29.82,NW,323,13.0,13.0,72,0.00,,OVC,0.00,WeatherDisplay:10.37,2013-01-06 19:57:00,
2013-01-06 15:02:00,42.2,33.5,29.82,NNW,342,8.1,8.1,71,0.00,,OVC,0.00,WeatherDisplay:10.37,2013-01-06 20:02:00,
2013-01-06 15:07:00,42.3,33.9,29.82,NNW,348,5.8,5.8,72,0.00,,OVC,0.00,WeatherDisplay:10.37,2013-01-06 20:07:00,
2013-01-06 15:11:00,41.8,33.1,29.82,NNW,333,14.0,14.0,71,0.00,,OVC,0.00,WeatherDisplay:10.37,2013-01-06 20:11:00,
2013-01-06 15:13:00,41.6,33.2,29.82,NW,306,7.0,7.0,72,0.00,,OVC,0.00,WeatherDisplay:10.37,2013-01-06 20:13:00,
2013-01-06 15:18:00,41.0,33.0,29.82,NNW,329,8.1,8.1,73,0.00,,OVC,0.00,WeatherDisplay:10.37,2013-01-06 20:18:00,
2013-01-06 15:23:00,40.9,32.9,29.82,NE,49,8.0,8.0,73,0.00,,OVC,0.00,WeatherDisplay:10.37,2013-01-06 20:23:00,
2013-01-06 15:28:00,40.5,32.2,29.82,North,355,13.0,13.0,72,0.00,,OVC,0.00,WeatherDisplay:10.37,2013-01-06 20:28:00,
2013-01-06 15:33:00,39.8,31.8,29.82,NW,306,15.0,15.0,73,0.00,,OVC,0.00,WeatherDisplay:10.37,2013-01-06 20:33:00,
2013-01-06 15:38:00,39.7,32.1,29.82,North,355,9.2,9.2,74,0.00,,OVC,0.00,WeatherDisplay:10.37,2013-01-06 20:38:00,
2013-01-06 15:43:00,39.9,31.9,29.82,NE,51,6.9,6.9,73,0.00,,OVC,0.00,WeatherDisplay:10.37,2013-01-06 20:43:00,
2013-01-06 15:48:00,40.0,32.0,29.82,NNW,338,9.0,9.0,73,0.00,,OVC,0.00,WeatherDisplay:10.37,2013-01-06 20:48:00,
2013-01-06 15:53:00,40.2,31.9,29.82,NW,310,11.5,11.5,72,0.00,,OVC,0.00,WeatherDisplay:10.37,2013-01-06 20:53:00,
2013-01-06 15:58:00,40.4,32.1,29.82,NW,311,11.0,11.0,72,0.00,,OVC,0.00,WeatherDisplay:10.37,2013-01-06 20:58:00,
2013-01-06 16:02:00,40.2,31.9,29.82,WNW,299,10.4,10.4,72,0.00,,OVC,0.00,WeatherDisplay:10.37,2013-01-06 21:02:00,
2013-01-06 16:07:00,39.9,31.6,29.82,NW,323,9.2,9.2,72,0.00,,OVC,0.00,WeatherDisplay:10.37,2013-01-06 21:07:00,
2013-01-06 16:12:00,40.0,31.7,29.82,NW,326,6.9,6.9,72,0.00,,OVC,0.00,WeatherDisplay:10.37,2013-01-06 21:12:00,
2013-01-06 16:17:00,40.0,31.7,29.82,WNW,300,4.6,4.6,72,0.00,,OVC,0.00,WeatherDisplay:10.37,2013-01-06 21:17:00,
2013-01-06 16:22:00,40.1,31.8,29.82,NW,325,5.8,5.8,72,0.00,,OVC,0.00,WeatherDisplay:10.37,2013-01-06 21:22:00,
2013-01-06 16:27:00,39.8,31.5,29.82,NNW,335,11.5,11.5,72,0.00,,OVC,0.00,WeatherDisplay:10.37,2013-01-06 21:27:00,
2013-01-06 16:32:00,39.8,31.5,29.82,NW,309,4.6,4.6,72,0.00,,OVC,0.00,WeatherDisplay:10.37,2013-01-06 21:32:00,
2013-01-06 16:37:00,39.9,31.6,29.82,NNW,333,8.1,8.1,72,0.00,,OVC,0.00,WeatherDisplay:10.37,2013-01-06 21:37:00,
2013-01-06 16:42:00,39.6,31.3,29.82,NNW,327,5.8,5.8,72,0.00,,OVC,0.00,WeatherDisplay:10.37,2013-01-06 21:42:00,
2013-01-06 16:47:00,39.2,30.9,29.82,NW,320,8.1,8.1,72,0.00,,OVC,0.00,WeatherDisplay:10.37,2013-01-06 21:47:00,
2013-01-06 16:52:00,38.9,31.0,29.82,North,349,8.1,8.1,73,0.00,,OVC,0.00,WeatherDisplay:10.37,2013-01-06 21:52:00,
2013-01-06 16:57:00,38.7,30.8,29.82,NW,323,5.8,5.8,73,0.00,,OVC,0.00,WeatherDisplay:10.37,2013-01-06 21:57:00,
2013-01-06 17:02:00,38.7,30.8,29.82,NW,320,4.6,4.6,73,0.00,,OVC,0.00,WeatherDisplay:10.37,2013-01-06 22:02:00,
2013-01-06 17:07:00,38.6,30.7,29.82,NNW,337,3.5,3.5,73,0.00,,OVC,0.00,WeatherDisplay:10.37,2013-01-06 22:07:00,
2013-01-06 17:12:00,38.6,30.7,29.82,North,355,4.6,4.6,73,0.00,,OVC,0.00,WeatherDisplay:10.37,2013-01-06 22:12:00,
2013-01-06 17:17:00,38.3,30.4,29.82,NNW,336,3.5,3.5,73,0.00,,OVC,0.00,WeatherDisplay:10.37,2013-01-06 22:17:00,
2013-01-06 17:22:00,38.0,30.4,29.82,North,355,3.5,3.5,74,0.00,,OVC,0.00,WeatherDisplay:10.37,2013-01-06 22:22:00,
2013-01-06 17:27:00,37.7,30.2,29.82,NNW,333,2.0,2.0,74,0.00,,OVC,0.00,WeatherDisplay:10.37,2013-01-06 22:27:00,
2013-01-06 17:32:00,37.4,29.9,29.82,NNW,327,3.5,3.5,74,0.00,,OVC,0.00,WeatherDisplay:10.37,2013-01-06 22:32:00,
2013-01-06 17:37:00,37.2,30.0,29.82,NNW,340,2.3,2.3,75,0.00,,OVC,0.00,WeatherDisplay:10.37,2013-01-06 22:37:00,
2013-01-06 17:42:00,37.0,29.8,29.82,North,355,2.3,2.3,75,0.00,,OVC,0.00,WeatherDisplay:10.37,2013-01-06 22:42:00,
2013-01-06 17:47:00,36.9,29.7,29.82,NNW,339,3.5,0.0,75,0.00,,OVC,0.00,WeatherDisplay:10.37,2013-01-06 22:47:00,
2013-01-06 17:52:00,36.8,29.6,29.82,North,349,4.6,4.6,75,0.00,,OVC,0.00,WeatherDisplay:10.37,2013-01-06 22:52:00,
2013-01-06 17:57:00,36.6,29.4,29.82,North,5,5.8,5.8,75,0.00,,OVC,0.00,WeatherDisplay:10.37,2013-01-06 22:57:00,
2013-01-06 18:02:00,36.5,29.3,29.82,NNW,346,2.3,2.3,75,0.00,,OVC,0.00,WeatherDisplay:10.37,2013-01-06 23:02:00,
2013-01-06 18:07:00,36.5,29.3,29.82,NNW,334,4.0,4.4,75,0.00,,OVC,0.00,WeatherDisplay:10.37,2013-01-06 23:07:00,
2013-01-06 18:12:00,36.4,29.2,29.82,NNW,336,11.5,11.5,75,0.00,,OVC,0.00,WeatherDisplay:10.37,2013-01-06 23:12:00,
2013-01-06 18:17:00,36.1,29.3,29.82,NNW,334,4.6,4.6,76,0.00,,OVC,0.00,WeatherDisplay:10.37,2013-01-06 23:17:00,
2013-01-06 18:22:00,36.0,29.5,29.82,NW,325,6.9,6.9,77,0.00,,OVC,0.00,WeatherDisplay:10.37,2013-01-06 23:22:00,
2013-01-06 18:27:00,35.9,29.4,29.82,North,355,5.8,5.8,77,0.00,,OVC,0.00,WeatherDisplay:10.37,2013-01-06 23:27:00,
2013-01-06 18:32:00,35.7,29.2,29.82,NNE,28,11.5,11.5,77,0.00,,OVC,0.00,WeatherDisplay:10.37,2013-01-06 23:32:00,
2013-01-06 18:37:00,35.6,29.1,29.82,NNW,340,5.0,5.0,77,0.00,,OVC,0.00,WeatherDisplay:10.37,2013-01-06 23:37:00,
2013-01-06 18:42:00,35.5,29.0,29.82,NNE,22,9.2,9.2,77,0.00,,OVC,0.00,WeatherDisplay:10.37,2013-01-06 23:42:00,
2013-01-06 18:47:00,35.6,29.1,29.82,NNE,25,14.0,14.0,77,0.00,,OVC,0.00,WeatherDisplay:10.37,2013-01-06 23:47:00,
2013-01-06 18:52:00,35.6,29.1,29.82,North,360,10.0,10.0,77,0.00,,OVC,0.00,WeatherDisplay:10.37,2013-01-06 23:52:00,
2013-01-06 18:57:00,35.6,29.1,29.82,NNW,337,11.5,11.5,77,0.00,,OVC,0.00,WeatherDisplay:10.37,2013-01-06 23:57:00,
2013-01-06 19:02:00,35.6,28.8,29.82,NNW,327,9.2,9.2,76,0.00,,OVC,0.00,WeatherDisplay:10.37,2013-01-07 00:02:00,
2013-01-06 19:07:00,35.5,28.7,29.82,North,5,5.8,5.8,76,0.00,,OVC,0.00,WeatherDisplay:10.37,2013-01-07 00:07:00,
2013-01-06 19:12:00,35.4,28.6,29.82,NNW,333,8.1,8.1,76,0.00,,OVC,0.00,WeatherDisplay:10.37,2013-01-07 00:12:00,
2013-01-06 19:17:00,35.3,28.5,29.82,NW,306,3.5,3.5,76,0.00,,OVC,0.00,WeatherDisplay:10.37,2013-01-07 00:17:00,
2013-01-06 19:22:00,35.3,28.5,29.82,North,9,3.5,3.5,76,0.00,,OVC,0.00,WeatherDisplay:10.37,2013-01-07 00:22:00,
2013-01-06 19:27:00,35.2,28.4,29.82,NNW,340,8.1,8.1,76,0.00,,OVC,0.00,WeatherDisplay:10.37,2013-01-07 00:27:00,
2013-01-06 19:32:00,35.2,28.1,29.82,NNE,23,3.5,3.5,75,0.00,,OVC,0.00,WeatherDisplay:10.37,2013-01-07 00:32:00,
2013-01-06 19:37:00,35.2,28.4,29.82,NNW,341,0.0,0.0,76,0.00,,OVC,0.00,WeatherDisplay:10.37,2013-01-07 00:37:00,
2013-01-06 19:42:00,35.1,28.3,29.82,NNW,341,3.5,3.5,76,0.00,,OVC,0.00,WeatherDisplay:10.37,2013-01-07 00:42:00,
2013-01-06 19:47:00,35.0,28.2,29.82,NNE,24,5.8,5.8,76,0.00,,OVC,0.00,WeatherDisplay:10.37,2013-01-07 00:47:00,
2013-01-06 19:52:00,35.1,28.3,29.82,North,351,5.0,5.0,76,0.00,,OVC,0.00,WeatherDisplay:10.37,2013-01-07 00:52:00,
2013-01-06 19:57:00,35.1,28.3,29.82,NNE,32,2.3,2.3,76,0.00,,OVC,0.00,WeatherDisplay:10.37,2013-01-07 00:57:00,
2013-01-06 20:02:00,35.2,28.4,29.82,North,9,4.6,4.6,76,0.00,,OVC,0.00,WeatherDisplay:10.37,2013-01-07 01:02:00,
2013-01-06 20:07:00,35.4,28.3,29.82,ENE,67,5.8,5.8,75,0.00,,OVC,0.00,WeatherDisplay:10.37,2013-01-07 01:07:00,
2013-01-06 20:12:00,35.5,28.4,29.82,North,360,1.1,1.1,75,0.00,,OVC,0.00,WeatherDisplay:10.37,2013-01-07 01:12:00,
2013-01-06 20:17:00,35.6,28.5,29.82,North,351,6.0,6.0,75,0.00,,OVC,0.00,WeatherDisplay:10.37,2013-01-07 01:17:00,
2013-01-06 20:22:00,35.6,28.5,29.82,NNE,22,1.1,0.0,75,0.00,,OVC,0.00,WeatherDisplay:10.37,2013-01-07 01:22:00,
2013-01-06 20:27:00,35.6,28.8,29.82,NNW,328,8.1,8.1,76,0.00,,OVC,0.00,WeatherDisplay:10.37,2013-01-07 01:27:00,
2013-01-06 20:32:00,35.6,28.8,29.82,North,360,3.5,3.5,76,0.00,,OVC,0.00,WeatherDisplay:10.37,2013-01-07 01:32:00,
2013-01-06 20:37:00,35.7,28.9,29.82,NNW,340,2.3,2.3,76,0.00,,OVC,0.00,WeatherDisplay:10.37,2013-01-07 01:37:00,
2013-01-06 20:42:00,35.7,28.9,29.82,NNW,340,9.0,9.0,76,0.00,,OVC,0.00,WeatherDisplay:10.37,2013-01-07 01:42:00,
2013-01-06 20:47:00,35.7,28.9,29.82,NW,325,6.9,6.9,76,0.00,,OVC,0.00,WeatherDisplay:10.37,2013-01-07 01:47:00,
2013-01-06 20:52:00,35.8,29.0,29.82,North,355,6.9,6.9,76,0.00,,OVC,0.00,WeatherDisplay:10.37,2013-01-07 01:52:00,
2013-01-06 20:57:00,35.8,29.0,29.82,NNW,339,2.3,2.3,76,0.00,,OVC,0.00,WeatherDisplay:10.37,2013-01-07 01:57:00,
2013-01-06 21:02:00,35.9,29.1,29.82,North,360,5.8,5.8,76,0.00,,OVC,0.00,WeatherDisplay:10.37,2013-01-07 02:02:00,
2013-01-06 21:07:00,35.9,29.1,29.82,NNW,335,9.2,9.2,76,0.00,,OVC,0.00,WeatherDisplay:10.37,2013-01-07 02:07:00,
2013-01-06 21:12:00,36.0,29.2,29.82,NNW,333,4.0,4.0,76,0.00,,OVC,0.00,WeatherDisplay:10.37,2013-01-07 02:12:00,
2013-01-06 21:17:00,36.0,29.2,29.82,NE,40,9.0,9.0,76,0.00,,OVC,0.00,WeatherDisplay:10.37,2013-01-07 02:17:00,
2013-01-06 21:23:00,36.1,29.3,29.82,North,360,5.8,5.8,76,0.00,,OVC,0.00,WeatherDisplay:10.37,2013-01-07 02:23:00,
2013-01-06 21:28:00,36.1,29.3,29.82,NW,323,6.9,6.9,76,0.00,,OVC,0.00,WeatherDisplay:10.37,2013-01-07 02:28:00,
2013-01-06 21:33:00,36.2,29.4,29.82,NNE,25,6.9,6.9,76,0.00,,OVC,0.00,WeatherDisplay:10.37,2013-01-07 02:33:00,
2013-01-06 21:38:00,36.2,29.4,29.82,WNW,302,3.5,3.5,76,0.00,,OVC,0.00,WeatherDisplay:10.37,2013-01-07 02:38:00,
2013-01-06 21:43:00,36.2,29.4,29.82,NW,311,4.6,4.6,76,0.00,,OVC,0.00,WeatherDisplay:10.37,2013-01-07 02:43:00,
2013-01-06 21:48:00,36.2,29.4,29.82,NNW,329,1.1,1.1,76,0.00,,OVC,0.00,WeatherDisplay:10.37,2013-01-07 02:48:00,
2013-01-06 21:53:00,36.3,29.5,29.82,NW,326,3.0,3.0,76,0.00,,OVC,0.00,WeatherDisplay:10.37,2013-01-07 02:53:00,
2013-01-06 21:58:00,36.4,29.2,29.82,NW,314,3.5,3.5,75,0.00,,OVC,0.00,WeatherDisplay:10.37,2013-01-07 02:58:00,
2013-01-06 22:03:00,36.4,29.2,29.82,WSW,252,3.5,3.5,75,0.00,,OVC,0.00,WeatherDisplay:10.37,2013-01-07 03:03:00,
2013-01-06 22:08:00,36.5,29.3,29.82,NW,317,3.5,3.5,75,0.00,,OVC,0.00,WeatherDisplay:10.37,2013-01-07 03:08:00,
2013-01-06 22:13:00,36.5,29.3,29.82,NW,322,2.3,2.3,75,0.00,,OVC,0.00,WeatherDisplay:10.37,2013-01-07 03:13:00,
2013-01-06 22:18:00,36.4,29.2,29.82,NNW,327,8.1,8.1,75,0.00,,OVC,0.00,WeatherDisplay:10.37,2013-01-07 03:18:00,
2013-01-06 22:23:00,36.3,29.1,29.82,WNW,300,3.5,3.5,75,0.00,,OVC,0.00,WeatherDisplay:10.37,2013-01-07 03:23:00,
2013-01-06 22:28:00,36.4,28.9,29.82,NNW,336,10.4,10.4,74,0.00,,OVC,0.00,WeatherDisplay:10.37,2013-01-07 03:28:00,
2013-01-06 22:33:00,36.6,29.1,29.82,NW,312,11.5,11.5,74,0.00,,OVC,0.00,WeatherDisplay:10.37,2013-01-07 03:33:00,
2013-01-06 22:38:00,36.7,29.2,29.82,NW,311,10.4,10.4,74,0.00,,OVC,0.00,WeatherDisplay:10.37,2013-01-07 03:38:00,
2013-01-06 22:43:00,36.7,29.2,29.82,NNW,344,6.9,6.9,74,0.00,,OVC,0.00,WeatherDisplay:10.37,2013-01-07 03:43:00,
2013-01-06 22:48:00,36.7,29.2,29.82,NNW,329,8.1,8.1,74,0.00,,OVC,0.00,WeatherDisplay:10.37,2013-01-07 03:48:00,
2013-01-06 22:53:00,36.8,29.3,29.82,NNW,336,9.2,9.2,74,0.00,,OVC,0.00,WeatherDisplay:10.37,2013-01-07 03:53:00,
2013-01-06 22:58:00,36.7,29.2,29.82,NNW,330,6.9,6.9,74,0.00,,OVC,0.00,WeatherDisplay:10.37,2013-01-07 03:58:00,
2013-01-06 23:03:00,36.5,29.3,29.82,NW,309,9.2,9.2,75,0.00,,OVC,0.00,WeatherDisplay:10.37,2013-01-07 04:03:00,
2013-01-06 23:08:00,36.4,29.2,29.82,NW,315,10.4,10.4,75,0.00,,OVC,0.00,WeatherDisplay:10.37,2013-01-07 04:08:00,
2013-01-06 23:13:00,36.2,29.4,29.82,North,355,11.5,11.5,76,0.00,,OVC,0.00,WeatherDisplay:10.37,2013-01-07 04:13:00,
2013-01-06 23:18:00,36.2,29.4,29.82,NW,313,10.4,10.4,76,0.00,,OVC,0.00,WeatherDisplay:10.37,2013-01-07 04:18:00,
2013-01-06 23:23:00,36.1,29.3,29.82,NW,309,16.1,16.1,76,0.00,,OVC,0.00,WeatherDisplay:10.37,2013-01-07 04:23:00,
2013-01-06 23:28:00,36.1,29.6,29.82,NW,322,11.5,11.5,77,0.00,,OVC,0.00,WeatherDisplay:10.37,2013-01-07 04:28:00,
2013-01-06 23:33:00,36.1,29.6,29.82,NW,308,5.8,5.8,77,0.00,,OVC,0.00,WeatherDisplay:10.37,2013-01-07 04:33:00,
2013-01-06 23:38:00,36.0,29.5,29.82,NW,304,10.4,10.4,77,0.00,,OVC,0.00,WeatherDisplay:10.37,2013-01-07 04:38:00,
2013-01-06 23:43:00,36.0,29.5,29.82,NW,308,13.8,13.8,77,0.00,,OVC,0.00,WeatherDisplay:10.37,2013-01-07 04:43:00,
2013-01-06 23:48:00,36.0,29.5,29.82,North,355,11.5,11.5,77,0.00,,OVC,0.00,WeatherDisplay:10.37,2013-01-07 04:48:00,
2013-01-06 23:53:00,35.9,29.4,29.82,NW,304,8.0,8.0,77,0.00,,OVC,0.00,WeatherDisplay:10.37,2013-01-07 04:53:00,
2013-01-06 23:58:00,35.8,29.3,29.82,West,276,8.1,8.1,77,0.00,,OVC,0.00,WeatherDisplay:10.37,2013-01-07 04:58:00,